sensor_id;sensor_type;location;lat;lon;timestamp;P1;durP1;ratioP1;P2;durP2;ratioP2
69527;SDS011;57136;51.986;4.468;2022-08-21T00:00:17;10.32;;;3.22;;
69527;SDS011;57136;51.986;4.468;2022-08-21T00:02:46;9.40;;;3.33;;
69527;SDS011;57136;51.986;4.468;2022-08-21T00:05:14;7.18;;;2.83;;
69527;SDS011;57136;51.986;4.468;2022-08-21T00:07:40;8.85;;;2.97;;
69527;SDS011;57136;51.986;4.468;2022-08-21T00:10:06;11.07;;;3.60;;
69527;SDS011;57136;51.986;4.468;2022-08-21T00:12:31;6.30;;;2.33;;
69527;SDS011;57136;51.986;4.468;2022-08-21T00:14:57;6.25;;;2.20;;
69527;SDS011;57136;51.986;4.468;2022-08-21T00:17:23;6.40;;;2.22;;
69527;SDS011;57136;51.986;4.468;2022-08-21T00:19:48;7.07;;;2.75;;
69527;SDS011;57136;51.986;4.468;2022-08-21T00:22:13;9.98;;;3.03;;
69527;SDS011;57136;51.986;4.468;2022-08-21T00:24:39;9.38;;;2.83;;
69527;SDS011;57136;51.986;4.468;2022-08-21T00:27:04;10.38;;;2.72;;
69527;SDS011;57136;51.986;4.468;2022-08-21T00:29:29;6.47;;;2.75;;
69527;SDS011;57136;51.986;4.468;2022-08-21T00:31:55;5.47;;;2.55;;
69527;SDS011;57136;51.986;4.468;2022-08-21T00:34:20;9.82;;;2.63;;
69527;SDS011;57136;51.986;4.468;2022-08-21T00:36:50;7.43;;;2.28;;
69527;SDS011;57136;51.986;4.468;2022-08-21T00:39:16;6.20;;;2.55;;
69527;SDS011;57136;51.986;4.468;2022-08-21T00:41:41;7.00;;;2.55;;
69527;SDS011;57136;51.986;4.468;2022-08-21T00:44:08;6.85;;;2.30;;
69527;SDS011;57136;51.986;4.468;2022-08-21T00:46:36;8.30;;;2.65;;
69527;SDS011;57136;51.986;4.468;2022-08-21T00:49:03;7.82;;;2.45;;
69527;SDS011;57136;51.986;4.468;2022-08-21T00:51:35;6.78;;;2.65;;
69527;SDS011;57136;51.986;4.468;2022-08-21T00:54:10;7.43;;;2.33;;
69527;SDS011;57136;51.986;4.468;2022-08-21T00:56:36;6.47;;;2.38;;
69527;SDS011;57136;51.986;4.468;2022-08-21T00:59:02;8.00;;;2.10;;
69527;SDS011;57136;51.986;4.468;2022-08-21T01:01:28;10.95;;;3.65;;
69527;SDS011;57136;51.986;4.468;2022-08-21T01:03:54;6.53;;;2.25;;
69527;SDS011;57136;51.986;4.468;2022-08-21T01:06:19;6.50;;;2.55;;
69527;SDS011;57136;51.986;4.468;2022-08-21T01:08:45;8.13;;;2.20;;
69527;SDS011;57136;51.986;4.468;2022-08-21T01:11:12;5.40;;;2.38;;
69527;SDS011;57136;51.986;4.468;2022-08-21T01:13:39;8.98;;;2.40;;
69527;SDS011;57136;51.986;4.468;2022-08-21T01:16:09;8.40;;;2.65;;
69527;SDS011;57136;51.986;4.468;2022-08-21T01:18:35;5.38;;;2.65;;
69527;SDS011;57136;51.986;4.468;2022-08-21T01:23:28;7.47;;;2.65;;
69527;SDS011;57136;51.986;4.468;2022-08-21T01:25:54;5.95;;;2.65;;
69527;SDS011;57136;51.986;4.468;2022-08-21T01:28:19;7.90;;;2.22;;
69527;SDS011;57136;51.986;4.468;2022-08-21T01:30:46;6.38;;;2.30;;
69527;SDS011;57136;51.986;4.468;2022-08-21T01:33:15;8.68;;;2.70;;
69527;SDS011;57136;51.986;4.468;2022-08-21T01:35:43;7.60;;;3.50;;
69527;SDS011;57136;51.986;4.468;2022-08-21T01:38:08;6.35;;;1.90;;
69527;SDS011;57136;51.986;4.468;2022-08-21T01:40:34;5.15;;;2.25;;
69527;SDS011;57136;51.986;4.468;2022-08-21T01:42:59;7.85;;;2.67;;
69527;SDS011;57136;51.986;4.468;2022-08-21T01:45:25;8.02;;;2.20;;
69527;SDS011;57136;51.986;4.468;2022-08-21T01:47:50;7.10;;;2.60;;
69527;SDS011;57136;51.986;4.468;2022-08-21T01:50:16;6.22;;;2.40;;
69527;SDS011;57136;51.986;4.468;2022-08-21T01:52:43;7.93;;;3.40;;
69527;SDS011;57136;51.986;4.468;2022-08-21T01:55:10;5.70;;;2.47;;
69527;SDS011;57136;51.986;4.468;2022-08-21T01:57:36;7.13;;;2.75;;
69527;SDS011;57136;51.986;4.468;2022-08-21T02:00:04;6.10;;;2.58;;
69527;SDS011;57136;51.986;4.468;2022-08-21T02:02:33;7.50;;;3.08;;
69527;SDS011;57136;51.986;4.468;2022-08-21T02:04:58;7.57;;;3.38;;
69527;SDS011;57136;51.986;4.468;2022-08-21T02:07:24;7.70;;;3.05;;
69527;SDS011;57136;51.986;4.468;2022-08-21T02:09:49;10.25;;;3.80;;
69527;SDS011;57136;51.986;4.468;2022-08-21T02:12:15;9.00;;;3.42;;
69527;SDS011;57136;51.986;4.468;2022-08-21T02:14:40;10.15;;;4.10;;
69527;SDS011;57136;51.986;4.468;2022-08-21T02:17:06;15.00;;;4.75;;
69527;SDS011;57136;51.986;4.468;2022-08-21T02:19:31;10.77;;;4.10;;
69527;SDS011;57136;51.986;4.468;2022-08-21T02:21:56;8.40;;;4.00;;
69527;SDS011;57136;51.986;4.468;2022-08-21T02:24:22;9.25;;;3.75;;
69527;SDS011;57136;51.986;4.468;2022-08-21T02:26:47;8.05;;;4.03;;
69527;SDS011;57136;51.986;4.468;2022-08-21T02:29:13;11.15;;;3.75;;
69527;SDS011;57136;51.986;4.468;2022-08-21T02:31:38;7.13;;;2.97;;
69527;SDS011;57136;51.986;4.468;2022-08-21T02:34:03;7.43;;;3.20;;
69527;SDS011;57136;51.986;4.468;2022-08-21T02:36:29;9.07;;;3.40;;
69527;SDS011;57136;51.986;4.468;2022-08-21T02:38:55;10.10;;;3.67;;
69527;SDS011;57136;51.986;4.468;2022-08-21T02:41:21;7.57;;;3.13;;
69527;SDS011;57136;51.986;4.468;2022-08-21T02:43:46;8.38;;;3.30;;
69527;SDS011;57136;51.986;4.468;2022-08-21T02:46:13;7.68;;;2.92;;
69527;SDS011;57136;51.986;4.468;2022-08-21T02:48:40;5.80;;;2.85;;
69527;SDS011;57136;51.986;4.468;2022-08-21T02:51:10;8.68;;;3.15;;
69527;SDS011;57136;51.986;4.468;2022-08-21T02:53:39;8.63;;;2.80;;
69527;SDS011;57136;51.986;4.468;2022-08-21T02:56:06;8.40;;;2.50;;
69527;SDS011;57136;51.986;4.468;2022-08-21T02:58:38;8.23;;;2.80;;
69527;SDS011;57136;51.986;4.468;2022-08-21T03:01:06;6.57;;;3.10;;
69527;SDS011;57136;51.986;4.468;2022-08-21T03:03:34;7.05;;;2.80;;
69527;SDS011;57136;51.986;4.468;2022-08-21T03:06:00;8.40;;;2.88;;
69527;SDS011;57136;51.986;4.468;2022-08-21T03:08:26;8.15;;;2.90;;
69527;SDS011;57136;51.986;4.468;2022-08-21T03:10:51;7.85;;;2.45;;
69527;SDS011;57136;51.986;4.468;2022-08-21T03:13:18;5.50;;;2.58;;
69527;SDS011;57136;51.986;4.468;2022-08-21T03:15:45;6.70;;;2.40;;
69527;SDS011;57136;51.986;4.468;2022-08-21T03:18:11;5.90;;;2.88;;
69527;SDS011;57136;51.986;4.468;2022-08-21T03:20:37;5.93;;;2.90;;
69527;SDS011;57136;51.986;4.468;2022-08-21T03:23:06;4.68;;;2.70;;
69527;SDS011;57136;51.986;4.468;2022-08-21T03:25:32;6.30;;;2.55;;
69527;SDS011;57136;51.986;4.468;2022-08-21T03:27:59;8.95;;;2.47;;
69527;SDS011;57136;51.986;4.468;2022-08-21T03:30:26;8.73;;;2.63;;
69527;SDS011;57136;51.986;4.468;2022-08-21T03:32:51;9.15;;;2.80;;
69527;SDS011;57136;51.986;4.468;2022-08-21T03:35:17;10.13;;;3.00;;
69527;SDS011;57136;51.986;4.468;2022-08-21T03:37:44;10.70;;;3.15;;
69527;SDS011;57136;51.986;4.468;2022-08-21T03:40:11;7.82;;;3.03;;
69527;SDS011;57136;51.986;4.468;2022-08-21T03:42:38;10.18;;;3.00;;
69527;SDS011;57136;51.986;4.468;2022-08-21T03:45:04;8.93;;;3.03;;
69527;SDS011;57136;51.986;4.468;2022-08-21T03:47:30;9.43;;;3.20;;
69527;SDS011;57136;51.986;4.468;2022-08-21T03:49:55;8.88;;;3.00;;
69527;SDS011;57136;51.986;4.468;2022-08-21T03:52:21;7.15;;;2.92;;
69527;SDS011;57136;51.986;4.468;2022-08-21T03:54:46;9.00;;;2.70;;
69527;SDS011;57136;51.986;4.468;2022-08-21T03:57:12;9.85;;;2.85;;
69527;SDS011;57136;51.986;4.468;2022-08-21T03:59:37;7.13;;;2.53;;
69527;SDS011;57136;51.986;4.468;2022-08-21T04:02:05;8.30;;;3.00;;
69527;SDS011;57136;51.986;4.468;2022-08-21T04:04:32;6.82;;;2.78;;
69527;SDS011;57136;51.986;4.468;2022-08-21T04:06:57;8.73;;;2.72;;
69527;SDS011;57136;51.986;4.468;2022-08-21T04:09:24;8.18;;;3.33;;
69527;SDS011;57136;51.986;4.468;2022-08-21T04:11:50;6.65;;;2.60;;
69527;SDS011;57136;51.986;4.468;2022-08-21T04:14:15;9.18;;;3.17;;
69527;SDS011;57136;51.986;4.468;2022-08-21T04:16:42;11.98;;;3.53;;
69527;SDS011;57136;51.986;4.468;2022-08-21T04:19:08;11.60;;;3.08;;
69527;SDS011;57136;51.986;4.468;2022-08-21T04:21:35;6.82;;;2.92;;
69527;SDS011;57136;51.986;4.468;2022-08-21T04:24:02;7.40;;;3.05;;
69527;SDS011;57136;51.986;4.468;2022-08-21T04:26:27;7.47;;;3.20;;
69527;SDS011;57136;51.986;4.468;2022-08-21T04:28:53;9.85;;;3.30;;
69527;SDS011;57136;51.986;4.468;2022-08-21T04:31:20;14.25;;;3.42;;
69527;SDS011;57136;51.986;4.468;2022-08-21T04:33:45;10.60;;;3.72;;
69527;SDS011;57136;51.986;4.468;2022-08-21T04:36:14;10.90;;;3.40;;
69527;SDS011;57136;51.986;4.468;2022-08-21T04:38:40;10.32;;;3.13;;
69527;SDS011;57136;51.986;4.468;2022-08-21T04:41:05;8.75;;;3.47;;
69527;SDS011;57136;51.986;4.468;2022-08-21T04:43:31;9.23;;;3.13;;
69527;SDS011;57136;51.986;4.468;2022-08-21T04:45:57;8.80;;;3.13;;
69527;SDS011;57136;51.986;4.468;2022-08-21T04:48:22;10.05;;;3.30;;
69527;SDS011;57136;51.986;4.468;2022-08-21T04:55:56;9.82;;;3.70;;
69527;SDS011;57136;51.986;4.468;2022-08-21T04:58:27;11.93;;;3.70;;
69527;SDS011;57136;51.986;4.468;2022-08-21T05:00:54;6.32;;;3.22;;
69527;SDS011;57136;51.986;4.468;2022-08-21T05:03:22;14.18;;;4.30;;
69527;SDS011;57136;51.986;4.468;2022-08-21T05:05:48;8.10;;;3.45;;
69527;SDS011;57136;51.986;4.468;2022-08-21T05:08:16;8.48;;;3.40;;
69527;SDS011;57136;51.986;4.468;2022-08-21T05:10:44;10.23;;;3.45;;
69527;SDS011;57136;51.986;4.468;2022-08-21T05:13:10;12.07;;;4.13;;
69527;SDS011;57136;51.986;4.468;2022-08-21T05:15:37;13.52;;;3.95;;
69527;SDS011;57136;51.986;4.468;2022-08-21T05:18:04;11.65;;;4.85;;
69527;SDS011;57136;51.986;4.468;2022-08-21T05:20:29;10.80;;;3.97;;
69527;SDS011;57136;51.986;4.468;2022-08-21T05:22:55;11.55;;;3.85;;
69527;SDS011;57136;51.986;4.468;2022-08-21T05:25:20;9.77;;;3.67;;
69527;SDS011;57136;51.986;4.468;2022-08-21T05:27:46;9.75;;;4.00;;
69527;SDS011;57136;51.986;4.468;2022-08-21T05:30:11;12.32;;;5.07;;
69527;SDS011;57136;51.986;4.468;2022-08-21T05:32:36;9.63;;;4.75;;
69527;SDS011;57136;51.986;4.468;2022-08-21T05:35:03;14.10;;;4.82;;
69527;SDS011;57136;51.986;4.468;2022-08-21T05:37:31;10.88;;;4.88;;
69527;SDS011;57136;51.986;4.468;2022-08-21T05:39:56;11.40;;;4.93;;
69527;SDS011;57136;51.986;4.468;2022-08-21T05:42:22;13.77;;;4.90;;
69527;SDS011;57136;51.986;4.468;2022-08-21T05:44:47;13.38;;;4.53;;
69527;SDS011;57136;51.986;4.468;2022-08-21T05:47:14;11.95;;;5.22;;
69527;SDS011;57136;51.986;4.468;2022-08-21T05:49:39;11.65;;;5.03;;
69527;SDS011;57136;51.986;4.468;2022-08-21T05:52:05;11.77;;;4.72;;
69527;SDS011;57136;51.986;4.468;2022-08-21T05:54:31;14.02;;;5.50;;
69527;SDS011;57136;51.986;4.468;2022-08-21T05:56:56;13.95;;;4.72;;
69527;SDS011;57136;51.986;4.468;2022-08-21T05:59:22;16.58;;;5.45;;
69527;SDS011;57136;51.986;4.468;2022-08-21T06:01:48;13.32;;;4.82;;
69527;SDS011;57136;51.986;4.468;2022-08-21T06:04:13;12.80;;;5.25;;
69527;SDS011;57136;51.986;4.468;2022-08-21T06:06:39;15.50;;;5.97;;
69527;SDS011;57136;51.986;4.468;2022-08-21T06:09:04;14.35;;;5.75;;
69527;SDS011;57136;51.986;4.468;2022-08-21T06:11:31;15.18;;;5.47;;
69527;SDS011;57136;51.986;4.468;2022-08-21T06:13:57;11.65;;;4.75;;
69527;SDS011;57136;51.986;4.468;2022-08-21T06:16:24;13.73;;;5.13;;
69527;SDS011;57136;51.986;4.468;2022-08-21T06:18:50;15.90;;;4.88;;
69527;SDS011;57136;51.986;4.468;2022-08-21T06:21:16;11.48;;;5.03;;
69527;SDS011;57136;51.986;4.468;2022-08-21T06:23:42;14.65;;;5.15;;
69527;SDS011;57136;51.986;4.468;2022-08-21T06:26:08;14.07;;;5.20;;
69527;SDS011;57136;51.986;4.468;2022-08-21T06:28:36;12.77;;;4.72;;
69527;SDS011;57136;51.986;4.468;2022-08-21T06:31:09;12.73;;;5.30;;
69527;SDS011;57136;51.986;4.468;2022-08-21T06:33:45;11.63;;;5.18;;
69527;SDS011;57136;51.986;4.468;2022-08-21T06:36:11;12.13;;;5.35;;
69527;SDS011;57136;51.986;4.468;2022-08-21T06:38:37;13.60;;;5.60;;
69527;SDS011;57136;51.986;4.468;2022-08-21T06:41:04;13.88;;;5.50;;
69527;SDS011;57136;51.986;4.468;2022-08-21T06:43:31;12.07;;;4.60;;
69527;SDS011;57136;51.986;4.468;2022-08-21T06:45:56;12.15;;;5.45;;
69527;SDS011;57136;51.986;4.468;2022-08-21T06:48:22;15.52;;;5.60;;
69527;SDS011;57136;51.986;4.468;2022-08-21T06:50:47;12.75;;;5.43;;
69527;SDS011;57136;51.986;4.468;2022-08-21T06:53:14;12.85;;;4.93;;
69527;SDS011;57136;51.986;4.468;2022-08-21T06:55:41;12.07;;;4.53;;
69527;SDS011;57136;51.986;4.468;2022-08-21T06:58:07;12.73;;;5.50;;
69527;SDS011;57136;51.986;4.468;2022-08-21T07:00:34;12.55;;;4.28;;
69527;SDS011;57136;51.986;4.468;2022-08-21T07:03:00;13.90;;;4.82;;
69527;SDS011;57136;51.986;4.468;2022-08-21T07:05:26;9.43;;;5.00;;
69527;SDS011;57136;51.986;4.468;2022-08-21T07:07:54;14.88;;;4.65;;
69527;SDS011;57136;51.986;4.468;2022-08-21T07:10:20;12.32;;;4.40;;
69527;SDS011;57136;51.986;4.468;2022-08-21T07:12:45;12.80;;;4.38;;
69527;SDS011;57136;51.986;4.468;2022-08-21T07:15:11;15.30;;;4.75;;
69527;SDS011;57136;51.986;4.468;2022-08-21T07:17:36;15.50;;;4.32;;
69527;SDS011;57136;51.986;4.468;2022-08-21T07:20:03;13.70;;;4.43;;
69527;SDS011;57136;51.986;4.468;2022-08-21T07:22:29;16.67;;;4.70;;
69527;SDS011;57136;51.986;4.468;2022-08-21T07:24:55;12.88;;;3.97;;
69527;SDS011;57136;51.986;4.468;2022-08-21T07:27:21;12.95;;;4.45;;
69527;SDS011;57136;51.986;4.468;2022-08-21T07:29:46;11.45;;;4.20;;
69527;SDS011;57136;51.986;4.468;2022-08-21T07:32:11;10.10;;;3.75;;
69527;SDS011;57136;51.986;4.468;2022-08-21T07:34:37;11.80;;;4.13;;
69527;SDS011;57136;51.986;4.468;2022-08-21T07:37:02;9.93;;;4.30;;
69527;SDS011;57136;51.986;4.468;2022-08-21T07:39:28;10.32;;;4.03;;
69527;SDS011;57136;51.986;4.468;2022-08-21T07:41:54;8.95;;;3.53;;
69527;SDS011;57136;51.986;4.468;2022-08-21T07:44:19;10.57;;;3.75;;
69527;SDS011;57136;51.986;4.468;2022-08-21T07:46:45;9.70;;;3.83;;
69527;SDS011;57136;51.986;4.468;2022-08-21T07:49:10;7.72;;;3.50;;
69527;SDS011;57136;51.986;4.468;2022-08-21T07:51:35;7.57;;;3.15;;
69527;SDS011;57136;51.986;4.468;2022-08-21T07:54:01;12.55;;;3.42;;
69527;SDS011;57136;51.986;4.468;2022-08-21T07:56:27;10.70;;;3.70;;
69527;SDS011;57136;51.986;4.468;2022-08-21T07:58:54;11.35;;;3.35;;
69527;SDS011;57136;51.986;4.468;2022-08-21T08:01:20;10.00;;;3.20;;
69527;SDS011;57136;51.986;4.468;2022-08-21T08:03:46;9.23;;;3.45;;
69527;SDS011;57136;51.986;4.468;2022-08-21T08:06:11;11.73;;;3.10;;
69527;SDS011;57136;51.986;4.468;2022-08-21T08:08:38;11.43;;;3.00;;
69527;SDS011;57136;51.986;4.468;2022-08-21T08:11:05;13.23;;;3.35;;
69527;SDS011;57136;51.986;4.468;2022-08-21T08:13:31;10.75;;;3.15;;
69527;SDS011;57136;51.986;4.468;2022-08-21T08:15:57;7.80;;;2.53;;
69527;SDS011;57136;51.986;4.468;2022-08-21T08:18:22;9.18;;;3.33;;
69527;SDS011;57136;51.986;4.468;2022-08-21T08:20:47;12.25;;;3.17;;
69527;SDS011;57136;51.986;4.468;2022-08-21T08:23:13;8.70;;;2.97;;
69527;SDS011;57136;51.986;4.468;2022-08-21T08:25:55;10.52;;;3.35;;
69527;SDS011;57136;51.986;4.468;2022-08-21T08:28:21;10.40;;;2.80;;
69527;SDS011;57136;51.986;4.468;2022-08-21T08:30:47;6.10;;;2.85;;
69527;SDS011;57136;51.986;4.468;2022-08-21T08:33:13;14.20;;;3.35;;
69527;SDS011;57136;51.986;4.468;2022-08-21T08:35:40;8.27;;;3.00;;
69527;SDS011;57136;51.986;4.468;2022-08-21T08:38:09;9.25;;;3.22;;
69527;SDS011;57136;51.986;4.468;2022-08-21T08:43:20;9.25;;;2.42;;
69527;SDS011;57136;51.986;4.468;2022-08-21T08:45:48;12.73;;;2.63;;
69527;SDS011;57136;51.986;4.468;2022-08-21T08:48:19;8.73;;;2.53;;
69527;SDS011;57136;51.986;4.468;2022-08-21T08:51:00;12.43;;;3.03;;
69527;SDS011;57136;51.986;4.468;2022-08-21T08:53:33;9.00;;;2.97;;
69527;SDS011;57136;51.986;4.468;2022-08-21T08:56:08;7.32;;;2.78;;
69527;SDS011;57136;51.986;4.468;2022-08-21T08:58:37;8.27;;;2.63;;
69527;SDS011;57136;51.986;4.468;2022-08-21T09:01:05;5.32;;;2.42;;
69527;SDS011;57136;51.986;4.468;2022-08-21T09:03:34;7.88;;;2.78;;
69527;SDS011;57136;51.986;4.468;2022-08-21T09:11:40;9.40;;;2.30;;
69527;SDS011;57136;51.986;4.468;2022-08-21T09:14:19;9.30;;;2.80;;
69527;SDS011;57136;51.986;4.468;2022-08-21T09:26:23;7.13;;;2.30;;
69527;SDS011;57136;51.986;4.468;2022-08-21T09:28:37;8.23;;;2.50;;
69527;SDS011;57136;51.986;4.468;2022-08-21T09:31:08;9.23;;;2.40;;
69527;SDS011;57136;51.986;4.468;2022-08-21T09:33:40;5.53;;;2.05;;
69527;SDS011;57136;51.986;4.468;2022-08-21T09:36:06;6.35;;;1.90;;
69527;SDS011;57136;51.986;4.468;2022-08-21T09:38:33;6.97;;;2.10;;
69527;SDS011;57136;51.986;4.468;2022-08-21T09:41:04;8.95;;;2.10;;
69527;SDS011;57136;51.986;4.468;2022-08-21T09:43:32;7.30;;;2.13;;
69527;SDS011;57136;51.986;4.468;2022-08-21T09:46:04;7.63;;;2.20;;
69527;SDS011;57136;51.986;4.468;2022-08-21T09:48:48;8.60;;;1.90;;
69527;SDS011;57136;51.986;4.468;2022-08-21T09:51:20;9.32;;;2.30;;
69527;SDS011;57136;51.986;4.468;2022-08-21T09:53:50;8.35;;;2.05;;
69527;SDS011;57136;51.986;4.468;2022-08-21T09:56:21;9.40;;;2.53;;
69527;SDS011;57136;51.986;4.468;2022-08-21T09:59:15;6.95;;;2.10;;
69527;SDS011;57136;51.986;4.468;2022-08-21T10:01:45;4.78;;;2.15;;
69527;SDS011;57136;51.986;4.468;2022-08-21T10:04:14;6.82;;;2.10;;
69527;SDS011;57136;51.986;4.468;2022-08-21T10:06:40;7.60;;;1.98;;
69527;SDS011;57136;51.986;4.468;2022-08-21T10:09:10;11.95;;;2.60;;
69527;SDS011;57136;51.986;4.468;2022-08-21T10:11:38;5.93;;;1.83;;
69527;SDS011;57136;51.986;4.468;2022-08-21T10:14:11;7.00;;;1.95;;
69527;SDS011;57136;51.986;4.468;2022-08-21T10:19:37;6.32;;;1.90;;
69527;SDS011;57136;51.986;4.468;2022-08-21T10:27:51;6.25;;;1.65;;
69527;SDS011;57136;51.986;4.468;2022-08-21T10:30:45;8.52;;;1.73;;
69527;SDS011;57136;51.986;4.468;2022-08-21T10:36:02;7.80;;;2.05;;
69527;SDS011;57136;51.986;4.468;2022-08-21T10:47:32;7.50;;;1.75;;
69527;SDS011;57136;51.986;4.468;2022-08-21T10:56:29;4.75;;;1.65;;
69527;SDS011;57136;51.986;4.468;2022-08-21T11:01:57;4.18;;;1.30;;
69527;SDS011;57136;51.986;4.468;2022-08-21T11:04:31;7.57;;;1.52;;
69527;SDS011;57136;51.986;4.468;2022-08-21T11:07:14;3.13;;;1.30;;
69527;SDS011;57136;51.986;4.468;2022-08-21T11:09:45;7.53;;;1.83;;
69527;SDS011;57136;51.986;4.468;2022-08-21T11:18:16;5.75;;;1.48;;
69527;SDS011;57136;51.986;4.468;2022-08-21T11:21:01;4.25;;;1.38;;
69527;SDS011;57136;51.986;4.468;2022-08-21T11:23:54;6.20;;;1.80;;
69527;SDS011;57136;51.986;4.468;2022-08-21T11:26:41;7.57;;;1.70;;
69527;SDS011;57136;51.986;4.468;2022-08-21T11:29:12;6.80;;;1.50;;
69527;SDS011;57136;51.986;4.468;2022-08-21T11:31:47;7.75;;;2.03;;
69527;SDS011;57136;51.986;4.468;2022-08-21T11:34:25;5.15;;;1.98;;
69527;SDS011;57136;51.986;4.468;2022-08-21T11:37:51;6.00;;;1.52;;
69527;SDS011;57136;51.986;4.468;2022-08-21T11:40:26;4.97;;;1.30;;
69527;SDS011;57136;51.986;4.468;2022-08-21T11:48:21;5.18;;;1.55;;
69527;SDS011;57136;51.986;4.468;2022-08-21T11:51:13;6.88;;;1.42;;
69527;SDS011;57136;51.986;4.468;2022-08-21T11:53:49;5.93;;;1.27;;
69527;SDS011;57136;51.986;4.468;2022-08-21T11:56:45;4.72;;;1.50;;
69527;SDS011;57136;51.986;4.468;2022-08-21T11:59:20;3.95;;;1.40;;
69527;SDS011;57136;51.986;4.468;2022-08-21T12:01:51;3.17;;;1.40;;
69527;SDS011;57136;51.986;4.468;2022-08-21T12:04:28;3.92;;;1.00;;
69527;SDS011;57136;51.986;4.468;2022-08-21T12:07:08;8.00;;;1.45;;
69527;SDS011;57136;51.986;4.468;2022-08-21T12:09:36;6.53;;;1.42;;
69527;SDS011;57136;51.986;4.468;2022-08-21T12:14:49;4.50;;;1.50;;
69527;SDS011;57136;51.986;4.468;2022-08-21T12:17:20;2.47;;;1.13;;
69527;SDS011;57136;51.986;4.468;2022-08-21T12:20:00;4.65;;;1.27;;
69527;SDS011;57136;51.986;4.468;2022-08-21T12:22:47;4.03;;;1.30;;
69527;SDS011;57136;51.986;4.468;2022-08-21T12:25:17;3.70;;;1.33;;
69527;SDS011;57136;51.986;4.468;2022-08-21T12:30:49;5.82;;;1.30;;
69527;SDS011;57136;51.986;4.468;2022-08-21T12:33:23;6.28;;;1.67;;
69527;SDS011;57136;51.986;4.468;2022-08-21T12:35:52;6.00;;;1.60;;
69527;SDS011;57136;51.986;4.468;2022-08-21T12:38:27;5.95;;;1.63;;
69527;SDS011;57136;51.986;4.468;2022-08-21T12:41:03;4.97;;;1.23;;
69527;SDS011;57136;51.986;4.468;2022-08-21T12:46:02;3.88;;;1.27;;
69527;SDS011;57136;51.986;4.468;2022-08-21T12:51:11;3.83;;;1.48;;
69527;SDS011;57136;51.986;4.468;2022-08-21T12:53:53;6.70;;;1.73;;
69527;SDS011;57136;51.986;4.468;2022-08-21T12:56:22;5.63;;;1.45;;
69527;SDS011;57136;51.986;4.468;2022-08-21T12:58:51;5.38;;;1.23;;
69527;SDS011;57136;51.986;4.468;2022-08-21T13:01:35;5.20;;;1.40;;
69527;SDS011;57136;51.986;4.468;2022-08-21T13:04:09;7.35;;;1.80;;
69527;SDS011;57136;51.986;4.468;2022-08-21T13:06:41;7.22;;;1.38;;
69527;SDS011;57136;51.986;4.468;2022-08-21T13:09:11;4.70;;;1.70;;
69527;SDS011;57136;51.986;4.468;2022-08-21T13:11:39;7.68;;;1.73;;
69527;SDS011;57136;51.986;4.468;2022-08-21T13:14:10;6.45;;;1.63;;
69527;SDS011;57136;51.986;4.468;2022-08-21T13:16:56;3.65;;;1.42;;
69527;SDS011;57136;51.986;4.468;2022-08-21T13:19:23;4.90;;;1.33;;
69527;SDS011;57136;51.986;4.468;2022-08-21T13:21:49;4.43;;;1.27;;
69527;SDS011;57136;51.986;4.468;2022-08-21T13:24:20;4.20;;;1.40;;
69527;SDS011;57136;51.986;4.468;2022-08-21T13:26:47;4.53;;;1.42;;
69527;SDS011;57136;51.986;4.468;2022-08-21T13:29:14;5.80;;;1.48;;
69527;SDS011;57136;51.986;4.468;2022-08-21T13:31:49;4.57;;;1.60;;
69527;SDS011;57136;51.986;4.468;2022-08-21T13:34:18;4.22;;;1.38;;
69527;SDS011;57136;51.986;4.468;2022-08-21T13:36:46;7.63;;;1.48;;
69527;SDS011;57136;51.986;4.468;2022-08-21T13:39:16;3.70;;;1.40;;
69527;SDS011;57136;51.986;4.468;2022-08-21T13:41:46;6.93;;;1.55;;
69527;SDS011;57136;51.986;4.468;2022-08-21T13:44:21;5.60;;;1.30;;
69527;SDS011;57136;51.986;4.468;2022-08-21T13:46:51;3.45;;;1.58;;
69527;SDS011;57136;51.986;4.468;2022-08-21T13:49:19;5.68;;;1.45;;
69527;SDS011;57136;51.986;4.468;2022-08-21T13:51:48;5.57;;;1.30;;
69527;SDS011;57136;51.986;4.468;2022-08-21T13:54:23;6.60;;;1.50;;
69527;SDS011;57136;51.986;4.468;2022-08-21T13:56:52;4.25;;;1.20;;
69527;SDS011;57136;51.986;4.468;2022-08-21T13:59:25;7.85;;;1.40;;
69527;SDS011;57136;51.986;4.468;2022-08-21T14:01:57;4.80;;;1.50;;
69527;SDS011;57136;51.986;4.468;2022-08-21T14:04:35;5.00;;;1.40;;
69527;SDS011;57136;51.986;4.468;2022-08-21T14:07:13;5.38;;;1.60;;
69527;SDS011;57136;51.986;4.468;2022-08-21T14:09:43;6.72;;;1.80;;
69527;SDS011;57136;51.986;4.468;2022-08-21T14:12:16;6.72;;;1.50;;
69527;SDS011;57136;51.986;4.468;2022-08-21T14:15:02;4.68;;;1.33;;
69527;SDS011;57136;51.986;4.468;2022-08-21T14:20:02;6.93;;;1.50;;
69527;SDS011;57136;51.986;4.468;2022-08-21T14:22:30;5.07;;;1.85;;
69527;SDS011;57136;51.986;4.468;2022-08-21T14:25:26;4.57;;;1.85;;
69527;SDS011;57136;51.986;4.468;2022-08-21T14:28:19;9.18;;;1.95;;
69527;SDS011;57136;51.986;4.468;2022-08-21T14:30:50;5.63;;;2.15;;
69527;SDS011;57136;51.986;4.468;2022-08-21T14:33:20;9.30;;;2.58;;
69527;SDS011;57136;51.986;4.468;2022-08-21T14:35:51;8.77;;;1.92;;
69527;SDS011;57136;51.986;4.468;2022-08-21T14:38:17;8.38;;;2.30;;
69527;SDS011;57136;51.986;4.468;2022-08-21T14:40:47;6.85;;;1.90;;
69527;SDS011;57136;51.986;4.468;2022-08-21T14:43:16;8.27;;;2.20;;
69527;SDS011;57136;51.986;4.468;2022-08-21T14:45:42;8.02;;;2.05;;
69527;SDS011;57136;51.986;4.468;2022-08-21T14:48:09;9.25;;;2.50;;
69527;SDS011;57136;51.986;4.468;2022-08-21T14:50:34;10.02;;;2.65;;
69527;SDS011;57136;51.986;4.468;2022-08-21T14:53:00;6.32;;;1.98;;
69527;SDS011;57136;51.986;4.468;2022-08-21T14:55:26;11.23;;;2.40;;
69527;SDS011;57136;51.986;4.468;2022-08-21T14:57:52;10.30;;;2.42;;
69527;SDS011;57136;51.986;4.468;2022-08-21T15:00:21;9.98;;;2.00;;
69527;SDS011;57136;51.986;4.468;2022-08-21T15:02:49;5.22;;;2.03;;
69527;SDS011;57136;51.986;4.468;2022-08-21T15:05:14;6.70;;;2.20;;
69527;SDS011;57136;51.986;4.468;2022-08-21T15:07:40;6.88;;;2.17;;
69527;SDS011;57136;51.986;4.468;2022-08-21T15:10:08;5.93;;;2.03;;
69527;SDS011;57136;51.986;4.468;2022-08-21T15:12:34;6.93;;;2.40;;
69527;SDS011;57136;51.986;4.468;2022-08-21T15:15:00;6.57;;;2.28;;
69527;SDS011;57136;51.986;4.468;2022-08-21T15:17:25;6.93;;;2.53;;
69527;SDS011;57136;51.986;4.468;2022-08-21T15:19:51;10.65;;;2.50;;
69527;SDS011;57136;51.986;4.468;2022-08-21T15:22:17;8.23;;;2.22;;
69527;SDS011;57136;51.986;4.468;2022-08-21T15:24:42;8.77;;;2.25;;
69527;SDS011;57136;51.986;4.468;2022-08-21T15:27:08;7.80;;;2.25;;
69527;SDS011;57136;51.986;4.468;2022-08-21T15:29:35;7.32;;;2.60;;
69527;SDS011;57136;51.986;4.468;2022-08-21T15:32:02;5.30;;;2.28;;
69527;SDS011;57136;51.986;4.468;2022-08-21T15:34:40;6.97;;;2.40;;
69527;SDS011;57136;51.986;4.468;2022-08-21T15:37:06;8.80;;;2.70;;
69527;SDS011;57136;51.986;4.468;2022-08-21T15:39:32;6.22;;;2.40;;
69527;SDS011;57136;51.986;4.468;2022-08-21T15:41:59;9.88;;;2.65;;
69527;SDS011;57136;51.986;4.468;2022-08-21T15:44:25;6.10;;;2.53;;
69527;SDS011;57136;51.986;4.468;2022-08-21T15:46:53;7.88;;;2.13;;
69527;SDS011;57136;51.986;4.468;2022-08-21T15:49:18;9.35;;;2.22;;
69527;SDS011;57136;51.986;4.468;2022-08-21T15:51:43;7.85;;;2.40;;
69527;SDS011;57136;51.986;4.468;2022-08-21T15:54:09;5.70;;;2.22;;
69527;SDS011;57136;51.986;4.468;2022-08-21T15:56:36;5.43;;;2.10;;
69527;SDS011;57136;51.986;4.468;2022-08-21T15:59:07;9.38;;;2.33;;
69527;SDS011;57136;51.986;4.468;2022-08-21T16:01:38;7.25;;;2.17;;
69527;SDS011;57136;51.986;4.468;2022-08-21T16:04:03;9.00;;;2.50;;
69527;SDS011;57136;51.986;4.468;2022-08-21T16:06:30;6.72;;;2.55;;
69527;SDS011;57136;51.986;4.468;2022-08-21T16:08:56;9.23;;;2.20;;
69527;SDS011;57136;51.986;4.468;2022-08-21T16:11:22;5.00;;;2.50;;